sensor_id;sensor_type;location;lat;lon;timestamp;P1;durP1;ratioP1;P2;durP2;ratioP2
57746;SDS011;43580;44.014;20.466;2023-12-22T00:02:12;64.70;;;32.88;;
57746;SDS011;43580;44.014;20.466;2023-12-22T00:04:38;47.17;;;24.73;;
57746;SDS011;43580;44.014;20.466;2023-12-22T00:07:04;39.10;;;21.17;;
57746;SDS011;43580;44.014;20.466;2023-12-22T00:09:30;38.30;;;20.17;;
57746;SDS011;43580;44.014;20.466;2023-12-22T00:11:56;33.08;;;16.83;;
57746;SDS011;43580;44.014;20.466;2023-12-22T00:14:22;31.45;;;18.25;;
57746;SDS011;43580;44.014;20.466;2023-12-22T00:16:48;35.30;;;22.50;;
57746;SDS011;43580;44.014;20.466;2023-12-22T00:19:17;24.60;;;14.50;;
57746;SDS011;43580;44.014;20.466;2023-12-22T00:21:43;22.15;;;12.52;;
57746;SDS011;43580;44.014;20.466;2023-12-22T00:24:09;39.72;;;19.58;;
57746;SDS011;43580;44.014;20.466;2023-12-22T00:26:35;36.35;;;19.05;;
57746;SDS011;43580;44.014;20.466;2023-12-22T00:29:01;37.65;;;20.65;;
57746;SDS011;43580;44.014;20.466;2023-12-22T00:31:34;46.90;;;25.40;;
57746;SDS011;43580;44.014;20.466;2023-12-22T00:34:00;43.15;;;23.88;;
57746;SDS011;43580;44.014;20.466;2023-12-22T00:36:27;52.35;;;29.08;;
57746;SDS011;43580;44.014;20.466;2023-12-22T00:38:53;36.78;;;19.08;;
57746;SDS011;43580;44.014;20.466;2023-12-22T00:41:19;42.90;;;24.80;;
57746;SDS011;43580;44.014;20.466;2023-12-22T00:43:45;58.45;;;32.88;;
57746;SDS011;43580;44.014;20.466;2023-12-22T00:46:12;59.70;;;32.03;;
57746;SDS011;43580;44.014;20.466;2023-12-22T00:48:38;59.40;;;31.42;;
57746;SDS011;43580;44.014;20.466;2023-12-22T00:51:05;44.00;;;24.88;;
57746;SDS011;43580;44.014;20.466;2023-12-22T00:53:32;32.10;;;18.55;;
57746;SDS011;43580;44.014;20.466;2023-12-22T00:55:59;30.92;;;17.02;;
57746;SDS011;43580;44.014;20.466;2023-12-22T00:58:27;17.88;;;11.45;;
57746;SDS011;43580;44.014;20.466;2023-12-22T01:00:58;14.13;;;9.30;;
57746;SDS011;43580;44.014;20.466;2023-12-22T01:03:27;13.20;;;6.40;;
57746;SDS011;43580;44.014;20.466;2023-12-22T01:05:53;20.10;;;9.32;;
57746;SDS011;43580;44.014;20.466;2023-12-22T01:08:19;16.17;;;8.30;;
57746;SDS011;43580;44.014;20.466;2023-12-22T01:10:45;12.68;;;6.88;;
57746;SDS011;43580;44.014;20.466;2023-12-22T01:13:14;14.00;;;8.65;;
57746;SDS011;43580;44.014;20.466;2023-12-22T01:15:40;14.30;;;7.47;;
57746;SDS011;43580;44.014;20.466;2023-12-22T01:18:08;13.77;;;5.28;;
57746;SDS011;43580;44.014;20.466;2023-12-22T01:20:39;11.02;;;6.30;;
57746;SDS011;43580;44.014;20.466;2023-12-22T01:23:05;14.82;;;9.00;;
57746;SDS011;43580;44.014;20.466;2023-12-22T01:25:32;14.25;;;7.80;;
57746;SDS011;43580;44.014;20.466;2023-12-22T01:27:58;11.40;;;7.15;;
57746;SDS011;43580;44.014;20.466;2023-12-22T01:30:24;14.32;;;8.13;;
57746;SDS011;43580;44.014;20.466;2023-12-22T01:32:50;14.90;;;8.05;;
57746;SDS011;43580;44.014;20.466;2023-12-22T01:35:16;15.38;;;9.82;;
57746;SDS011;43580;44.014;20.466;2023-12-22T01:37:42;17.42;;;8.60;;
57746;SDS011;43580;44.014;20.466;2023-12-22T01:40:08;13.10;;;7.40;;
57746;SDS011;43580;44.014;20.466;2023-12-22T01:42:34;14.15;;;8.32;;
57746;SDS011;43580;44.014;20.466;2023-12-22T01:45:00;11.80;;;6.38;;
57746;SDS011;43580;44.014;20.466;2023-12-22T01:47:26;14.43;;;6.85;;
57746;SDS011;43580;44.014;20.466;2023-12-22T01:49:53;15.55;;;8.43;;
57746;SDS011;43580;44.014;20.466;2023-12-22T01:52:19;13.60;;;8.82;;
57746;SDS011;43580;44.014;20.466;2023-12-22T01:54:45;12.15;;;8.18;;
57746;SDS011;43580;44.014;20.466;2023-12-22T01:57:12;12.75;;;8.40;;
57746;SDS011;43580;44.014;20.466;2023-12-22T01:59:40;12.45;;;6.88;;
57746;SDS011;43580;44.014;20.466;2023-12-22T02:02:06;14.70;;;7.57;;
57746;SDS011;43580;44.014;20.466;2023-12-22T02:04:35;11.00;;;6.85;;
57746;SDS011;43580;44.014;20.466;2023-12-22T02:07:01;9.68;;;5.88;;
57746;SDS011;43580;44.014;20.466;2023-12-22T02:09:28;10.15;;;6.35;;
57746;SDS011;43580;44.014;20.466;2023-12-22T02:11:54;10.43;;;5.63;;
57746;SDS011;43580;44.014;20.466;2023-12-22T02:14:20;14.05;;;7.30;;
57746;SDS011;43580;44.014;20.466;2023-12-22T02:16:52;10.65;;;6.32;;
57746;SDS011;43580;44.014;20.466;2023-12-22T02:19:27;11.60;;;6.72;;
57746;SDS011;43580;44.014;20.466;2023-12-22T02:22:02;10.48;;;4.25;;
57746;SDS011;43580;44.014;20.466;2023-12-22T02:24:28;10.50;;;5.13;;
57746;SDS011;43580;44.014;20.466;2023-12-22T02:29:52;12.38;;;4.80;;
57746;SDS011;43580;44.014;20.466;2023-12-22T02:32:23;6.57;;;4.03;;
57746;SDS011;43580;44.014;20.466;2023-12-22T02:34:51;7.65;;;4.40;;
57746;SDS011;43580;44.014;20.466;2023-12-22T02:37:18;6.82;;;3.50;;
57746;SDS011;43580;44.014;20.466;2023-12-22T02:39:46;9.57;;;3.23;;
57746;SDS011;43580;44.014;20.466;2023-12-22T02:42:12;5.28;;;3.10;;
57746;SDS011;43580;44.014;20.466;2023-12-22T02:44:39;7.90;;;4.60;;
57746;SDS011;43580;44.014;20.466;2023-12-22T02:47:05;5.30;;;3.05;;
57746;SDS011;43580;44.014;20.466;2023-12-22T02:49:31;6.93;;;3.65;;
57746;SDS011;43580;44.014;20.466;2023-12-22T02:51:57;6.07;;;3.50;;
57746;SDS011;43580;44.014;20.466;2023-12-22T02:54:23;7.50;;;3.22;;
57746;SDS011;43580;44.014;20.466;2023-12-22T02:56:49;5.07;;;2.88;;
57746;SDS011;43580;44.014;20.466;2023-12-22T02:59:15;4.47;;;3.00;;
57746;SDS011;43580;44.014;20.466;2023-12-22T03:01:41;4.30;;;2.63;;
57746;SDS011;43580;44.014;20.466;2023-12-22T03:04:07;3.88;;;2.13;;
57746;SDS011;43580;44.014;20.466;2023-12-22T03:06:36;5.10;;;2.80;;
57746;SDS011;43580;44.014;20.466;2023-12-22T03:09:02;8.35;;;2.35;;
57746;SDS011;43580;44.014;20.466;2023-12-22T03:11:31;7.13;;;3.63;;
57746;SDS011;43580;44.014;20.466;2023-12-22T03:13:59;5.25;;;2.67;;
57746;SDS011;43580;44.014;20.466;2023-12-22T03:16:25;4.65;;;2.65;;
57746;SDS011;43580;44.014;20.466;2023-12-22T03:18:56;3.03;;;1.92;;
57746;SDS011;43580;44.014;20.466;2023-12-22T03:21:22;5.78;;;2.40;;
57746;SDS011;43580;44.014;20.466;2023-12-22T03:23:48;4.80;;;2.97;;
57746;SDS011;43580;44.014;20.466;2023-12-22T03:26:15;5.90;;;2.87;;
57746;SDS011;43580;44.014;20.466;2023-12-22T03:28:41;4.47;;;3.13;;
57746;SDS011;43580;44.014;20.466;2023-12-22T03:31:07;4.78;;;2.60;;
57746;SDS011;43580;44.014;20.466;2023-12-22T03:33:33;5.43;;;3.35;;
57746;SDS011;43580;44.014;20.466;2023-12-22T03:36:02;6.05;;;3.63;;
57746;SDS011;43580;44.014;20.466;2023-12-22T03:38:28;5.68;;;3.28;;
57746;SDS011;43580;44.014;20.466;2023-12-22T03:40:54;6.25;;;3.40;;
57746;SDS011;43580;44.014;20.466;2023-12-22T03:43:20;5.72;;;2.97;;
57746;SDS011;43580;44.014;20.466;2023-12-22T03:45:46;5.30;;;3.40;;
57746;SDS011;43580;44.014;20.466;2023-12-22T03:48:12;2.80;;;1.90;;
57746;SDS011;43580;44.014;20.466;2023-12-22T03:50:38;5.18;;;2.97;;
57746;SDS011;43580;44.014;20.466;2023-12-22T03:53:04;5.03;;;2.80;;
57746;SDS011;43580;44.014;20.466;2023-12-22T03:55:30;4.45;;;2.70;;
57746;SDS011;43580;44.014;20.466;2023-12-22T03:57:56;6.93;;;3.40;;
57746;SDS011;43580;44.014;20.466;2023-12-22T04:00:22;5.78;;;3.55;;
57746;SDS011;43580;44.014;20.466;2023-12-22T04:02:48;5.25;;;3.17;;
57746;SDS011;43580;44.014;20.466;2023-12-22T04:05:15;5.85;;;3.80;;
57746;SDS011;43580;44.014;20.466;2023-12-22T04:07:41;6.15;;;3.38;;
57746;SDS011;43580;44.014;20.466;2023-12-22T04:10:07;5.10;;;3.40;;
57746;SDS011;43580;44.014;20.466;2023-12-22T04:12:33;6.68;;;4.13;;
57746;SDS011;43580;44.014;20.466;2023-12-22T04:14:59;5.00;;;3.10;;
57746;SDS011;43580;44.014;20.466;2023-12-22T04:17:25;5.38;;;3.78;;
57746;SDS011;43580;44.014;20.466;2023-12-22T04:19:51;7.75;;;4.47;;
57746;SDS011;43580;44.014;20.466;2023-12-22T04:22:20;7.07;;;4.07;;
57746;SDS011;43580;44.014;20.466;2023-12-22T04:24:48;5.70;;;3.78;;
57746;SDS011;43580;44.014;20.466;2023-12-22T04:27:14;4.97;;;3.22;;
57746;SDS011;43580;44.014;20.466;2023-12-22T04:29:40;6.20;;;3.83;;
57746;SDS011;43580;44.014;20.466;2023-12-22T04:32:06;4.72;;;3.17;;
57746;SDS011;43580;44.014;20.466;2023-12-22T04:34:35;5.78;;;3.50;;
57746;SDS011;43580;44.014;20.466;2023-12-22T04:37:01;5.30;;;3.40;;
57746;SDS011;43580;44.014;20.466;2023-12-22T04:39:30;5.05;;;3.20;;
57746;SDS011;43580;44.014;20.466;2023-12-22T04:41:56;8.38;;;5.35;;
57746;SDS011;43580;44.014;20.466;2023-12-22T04:44:24;5.70;;;4.53;;
57746;SDS011;43580;44.014;20.466;2023-12-22T04:46:50;5.20;;;3.60;;
57746;SDS011;43580;44.014;20.466;2023-12-22T04:49:16;5.68;;;3.70;;
57746;SDS011;43580;44.014;20.466;2023-12-22T04:51:43;8.73;;;4.80;;
57746;SDS011;43580;44.014;20.466;2023-12-22T04:54:09;8.02;;;4.90;;
57746;SDS011;43580;44.014;20.466;2023-12-22T04:56:35;10.10;;;7.32;;
57746;SDS011;43580;44.014;20.466;2023-12-22T04:59:01;15.60;;;10.73;;
57746;SDS011;43580;44.014;20.466;2023-12-22T05:01:30;19.10;;;11.57;;
57746;SDS011;43580;44.014;20.466;2023-12-22T05:03:56;15.88;;;8.88;;
57746;SDS011;43580;44.014;20.466;2023-12-22T05:06:22;13.45;;;7.95;;
57746;SDS011;43580;44.014;20.466;2023-12-22T05:08:48;18.85;;;12.18;;
57746;SDS011;43580;44.014;20.466;2023-12-22T05:11:14;13.43;;;9.80;;
57746;SDS011;43580;44.014;20.466;2023-12-22T05:13:40;17.30;;;11.00;;
57746;SDS011;43580;44.014;20.466;2023-12-22T05:16:09;14.88;;;10.65;;
57746;SDS011;43580;44.014;20.466;2023-12-22T05:18:36;22.67;;;14.77;;
57746;SDS011;43580;44.014;20.466;2023-12-22T05:21:02;30.70;;;20.10;;
57746;SDS011;43580;44.014;20.466;2023-12-22T05:23:29;26.90;;;21.05;;
57746;SDS011;43580;44.014;20.466;2023-12-22T05:25:55;19.42;;;14.27;;
57746;SDS011;43580;44.014;20.466;2023-12-22T05:28:21;27.35;;;21.90;;
57746;SDS011;43580;44.014;20.466;2023-12-22T05:30:52;18.10;;;13.95;;
57746;SDS011;43580;44.014;20.466;2023-12-22T05:33:18;14.70;;;10.63;;
57746;SDS011;43580;44.014;20.466;2023-12-22T05:35:44;14.57;;;10.43;;
57746;SDS011;43580;44.014;20.466;2023-12-22T05:38:10;18.30;;;12.38;;
57746;SDS011;43580;44.014;20.466;2023-12-22T05:40:39;18.75;;;12.18;;
57746;SDS011;43580;44.014;20.466;2023-12-22T05:43:05;26.58;;;16.83;;
57746;SDS011;43580;44.014;20.466;2023-12-22T05:45:31;109.60;;;52.95;;
57746;SDS011;43580;44.014;20.466;2023-12-22T05:47:57;127.72;;;60.40;;
57746;SDS011;43580;44.014;20.466;2023-12-22T05:50:23;70.47;;;36.78;;
57746;SDS011;43580;44.014;20.466;2023-12-22T05:52:49;48.42;;;25.50;;
57746;SDS011;43580;44.014;20.466;2023-12-22T05:55:15;29.33;;;17.98;;
57746;SDS011;43580;44.014;20.466;2023-12-22T05:57:41;27.38;;;17.17;;
57746;SDS011;43580;44.014;20.466;2023-12-22T06:00:08;18.48;;;12.57;;
57746;SDS011;43580;44.014;20.466;2023-12-22T06:02:36;21.02;;;15.13;;
57746;SDS011;43580;44.014;20.466;2023-12-22T06:05:03;38.97;;;20.65;;
57746;SDS011;43580;44.014;20.466;2023-12-22T06:07:29;215.23;;;103.68;;
57746;SDS011;43580;44.014;20.466;2023-12-22T06:09:55;118.60;;;63.35;;
57746;SDS011;43580;44.014;20.466;2023-12-22T06:12:21;149.98;;;86.28;;
57746;SDS011;43580;44.014;20.466;2023-12-22T06:14:48;110.03;;;68.40;;
57746;SDS011;43580;44.014;20.466;2023-12-22T06:17:14;52.70;;;33.13;;
57746;SDS011;43580;44.014;20.466;2023-12-22T06:19:40;39.67;;;27.67;;
57746;SDS011;43580;44.014;20.466;2023-12-22T06:22:06;64.75;;;44.13;;
57746;SDS011;43580;44.014;20.466;2023-12-22T06:24:34;74.15;;;47.83;;
57746;SDS011;43580;44.014;20.466;2023-12-22T06:27:01;89.05;;;51.92;;
57746;SDS011;43580;44.014;20.466;2023-12-22T06:29:27;75.32;;;46.55;;
57746;SDS011;43580;44.014;20.466;2023-12-22T06:31:58;63.92;;;38.47;;
57746;SDS011;43580;44.014;20.466;2023-12-22T06:34:24;61.15;;;42.28;;
57746;SDS011;43580;44.014;20.466;2023-12-22T06:36:52;68.65;;;44.97;;
57746;SDS011;43580;44.014;20.466;2023-12-22T06:39:18;51.00;;;32.35;;
57746;SDS011;43580;44.014;20.466;2023-12-22T06:41:45;34.20;;;24.17;;
57746;SDS011;43580;44.014;20.466;2023-12-22T06:44:11;28.88;;;20.77;;
57746;SDS011;43580;44.014;20.466;2023-12-22T06:46:37;24.98;;;18.67;;
57746;SDS011;43580;44.014;20.466;2023-12-22T06:49:03;27.55;;;19.70;;
57746;SDS011;43580;44.014;20.466;2023-12-22T06:51:30;30.10;;;20.05;;
57746;SDS011;43580;44.014;20.466;2023-12-22T06:53:58;35.78;;;23.50;;
57746;SDS011;43580;44.014;20.466;2023-12-22T06:56:28;30.20;;;20.55;;
57746;SDS011;43580;44.014;20.466;2023-12-22T06:58:55;42.05;;;25.08;;
57746;SDS011;43580;44.014;20.466;2023-12-22T07:01:31;46.35;;;34.78;;
57746;SDS011;43580;44.014;20.466;2023-12-22T07:03:57;42.05;;;35.60;;
57746;SDS011;43580;44.014;20.466;2023-12-22T07:06:25;36.67;;;31.00;;
57746;SDS011;43580;44.014;20.466;2023-12-22T07:11:22;42.90;;;29.38;;
57746;SDS011;43580;44.014;20.466;2023-12-22T07:13:48;31.42;;;22.00;;
57746;SDS011;43580;44.014;20.466;2023-12-22T07:16:14;35.97;;;26.52;;
57746;SDS011;43580;44.014;20.466;2023-12-22T07:18:40;44.40;;;33.35;;
57746;SDS011;43580;44.014;20.466;2023-12-22T07:21:07;35.65;;;23.20;;
57746;SDS011;43580;44.014;20.466;2023-12-22T07:23:33;36.47;;;25.60;;
57746;SDS011;43580;44.014;20.466;2023-12-22T07:26:02;29.75;;;20.02;;
57746;SDS011;43580;44.014;20.466;2023-12-22T07:28:28;28.85;;;21.30;;
57746;SDS011;43580;44.014;20.466;2023-12-22T07:30:54;38.70;;;26.20;;
57746;SDS011;43580;44.014;20.466;2023-12-22T07:33:21;35.25;;;23.92;;
57746;SDS011;43580;44.014;20.466;2023-12-22T07:35:47;37.63;;;24.70;;
57746;SDS011;43580;44.014;20.466;2023-12-22T07:38:13;37.97;;;25.20;;
57746;SDS011;43580;44.014;20.466;2023-12-22T07:40:39;39.90;;;26.60;;
57746;SDS011;43580;44.014;20.466;2023-12-22T07:43:05;44.10;;;29.48;;
57746;SDS011;43580;44.014;20.466;2023-12-22T07:45:34;40.15;;;28.27;;
57746;SDS011;43580;44.014;20.466;2023-12-22T07:48:03;37.88;;;29.42;;
57746;SDS011;43580;44.014;20.466;2023-12-22T07:50:29;108.20;;;67.13;;
57746;SDS011;43580;44.014;20.466;2023-12-22T07:52:55;56.35;;;40.22;;
57746;SDS011;43580;44.014;20.466;2023-12-22T07:55:21;59.55;;;37.55;;
57746;SDS011;43580;44.014;20.466;2023-12-22T07:57:49;78.03;;;44.58;;
57746;SDS011;43580;44.014;20.466;2023-12-22T08:00:16;66.55;;;39.25;;
57746;SDS011;43580;44.014;20.466;2023-12-22T08:02:44;93.78;;;49.55;;
57746;SDS011;43580;44.014;20.466;2023-12-22T08:05:11;36.55;;;23.63;;
57746;SDS011;43580;44.014;20.466;2023-12-22T08:07:37;24.75;;;17.98;;
57746;SDS011;43580;44.014;20.466;2023-12-22T08:10:03;49.40;;;31.90;;
57746;SDS011;43580;44.014;20.466;2023-12-22T08:12:29;64.72;;;42.58;;
57746;SDS011;43580;44.014;20.466;2023-12-22T08:14:57;64.05;;;41.63;;
57746;SDS011;43580;44.014;20.466;2023-12-22T08:17:26;49.92;;;36.85;;
57746;SDS011;43580;44.014;20.466;2023-12-22T08:19:52;87.75;;;64.18;;
57746;SDS011;43580;44.014;20.466;2023-12-22T08:22:21;53.05;;;36.78;;
57746;SDS011;43580;44.014;20.466;2023-12-22T08:24:48;89.50;;;52.35;;
57746;SDS011;43580;44.014;20.466;2023-12-22T08:27:14;52.50;;;34.40;;
57746;SDS011;43580;44.014;20.466;2023-12-22T08:29:40;77.10;;;54.28;;
57746;SDS011;43580;44.014;20.466;2023-12-22T08:32:06;38.17;;;24.65;;
57746;SDS011;43580;44.014;20.466;2023-12-22T08:34:32;39.22;;;25.65;;
57746;SDS011;43580;44.014;20.466;2023-12-22T08:36:59;45.85;;;32.92;;
57746;SDS011;43580;44.014;20.466;2023-12-22T08:39:25;33.50;;;21.55;;
57746;SDS011;43580;44.014;20.466;2023-12-22T08:41:51;33.97;;;23.52;;
57746;SDS011;43580;44.014;20.466;2023-12-22T08:44:18;44.08;;;29.27;;
57746;SDS011;43580;44.014;20.466;2023-12-22T08:46:44;25.23;;;19.42;;
57746;SDS011;43580;44.014;20.466;2023-12-22T08:49:10;74.97;;;48.17;;
57746;SDS011;43580;44.014;20.466;2023-12-22T08:51:37;80.82;;;63.20;;
57746;SDS011;43580;44.014;20.466;2023-12-22T08:54:03;27.45;;;19.38;;
57746;SDS011;43580;44.014;20.466;2023-12-22T08:56:29;27.48;;;16.92;;
57746;SDS011;43580;44.014;20.466;2023-12-22T08:58:55;76.53;;;50.88;;
57746;SDS011;43580;44.014;20.466;2023-12-22T09:01:24;20.40;;;12.52;;
57746;SDS011;43580;44.014;20.466;2023-12-22T09:03:50;15.88;;;11.07;;
57746;SDS011;43580;44.014;20.466;2023-12-22T09:06:18;31.83;;;25.15;;
57746;SDS011;43580;44.014;20.466;2023-12-22T09:08:45;15.70;;;10.45;;
57746;SDS011;43580;44.014;20.466;2023-12-22T09:11:11;13.30;;;8.40;;
57746;SDS011;43580;44.014;20.466;2023-12-22T09:13:38;22.95;;;13.15;;
57746;SDS011;43580;44.014;20.466;2023-12-22T09:16:04;24.83;;;14.65;;
57746;SDS011;43580;44.014;20.466;2023-12-22T09:18:31;21.17;;;13.15;;
57746;SDS011;43580;44.014;20.466;2023-12-22T09:20:57;17.70;;;11.18;;
57746;SDS011;43580;44.014;20.466;2023-12-22T09:23:23;13.70;;;8.85;;
57746;SDS011;43580;44.014;20.466;2023-12-22T09:25:49;17.35;;;11.93;;
57746;SDS011;43580;44.014;20.466;2023-12-22T09:28:15;26.88;;;17.20;;
57746;SDS011;43580;44.014;20.466;2023-12-22T09:30:42;13.90;;;9.90;;
57746;SDS011;43580;44.014;20.466;2023-12-22T09:33:09;13.70;;;9.07;;
57746;SDS011;43580;44.014;20.466;2023-12-22T09:35:35;12.25;;;9.40;;
57746;SDS011;43580;44.014;20.466;2023-12-22T09:38:01;14.82;;;9.63;;
57746;SDS011;43580;44.014;20.466;2023-12-22T09:40:27;20.27;;;15.18;;
57746;SDS011;43580;44.014;20.466;2023-12-22T09:42:57;18.48;;;12.20;;
57746;SDS011;43580;44.014;20.466;2023-12-22T09:45:26;30.80;;;17.73;;
57746;SDS011;43580;44.014;20.466;2023-12-22T09:47:52;33.42;;;17.95;;
57746;SDS011;43580;44.014;20.466;2023-12-22T09:50:20;13.73;;;8.43;;
57746;SDS011;43580;44.014;20.466;2023-12-22T09:52:47;18.30;;;11.63;;
57746;SDS011;43580;44.014;20.466;2023-12-22T09:55:13;21.85;;;14.45;;
57746;SDS011;43580;44.014;20.466;2023-12-22T09:57:39;21.27;;;13.45;;
57746;SDS011;43580;44.014;20.466;2023-12-22T10:00:06;23.52;;;14.20;;
57746;SDS011;43580;44.014;20.466;2023-12-22T10:02:33;19.80;;;8.57;;
57746;SDS011;43580;44.014;20.466;2023-12-22T10:05:00;14.35;;;9.82;;
57746;SDS011;43580;44.014;20.466;2023-12-22T10:07:26;19.85;;;11.88;;
57746;SDS011;43580;44.014;20.466;2023-12-22T10:09:52;14.98;;;10.80;;
57746;SDS011;43580;44.014;20.466;2023-12-22T10:12:21;12.30;;;8.98;;
57746;SDS011;43580;44.014;20.466;2023-12-22T10:14:47;14.63;;;11.07;;
57746;SDS011;43580;44.014;20.466;2023-12-22T10:17:14;17.25;;;12.40;;
57746;SDS011;43580;44.014;20.466;2023-12-22T10:19:42;14.93;;;10.52;;
57746;SDS011;43580;44.014;20.466;2023-12-22T10:22:08;9.20;;;6.75;;
57746;SDS011;43580;44.014;20.466;2023-12-22T10:27:04;20.38;;;13.85;;
57746;SDS011;43580;44.014;20.466;2023-12-22T10:29:30;16.25;;;11.10;;
57746;SDS011;43580;44.014;20.466;2023-12-22T10:31:58;15.13;;;10.57;;
57746;SDS011;43580;44.014;20.466;2023-12-22T10:34:24;13.55;;;8.52;;
57746;SDS011;43580;44.014;20.466;2023-12-22T10:36:50;14.25;;;9.82;;
57746;SDS011;43580;44.014;20.466;2023-12-22T10:39:16;18.77;;;12.48;;
57746;SDS011;43580;44.014;20.466;2023-12-22T10:41:42;17.15;;;10.88;;
57746;SDS011;43580;44.014;20.466;2023-12-22T10:44:09;15.05;;;10.10;;
57746;SDS011;43580;44.014;20.466;2023-12-22T10:46:35;23.90;;;13.98;;
57746;SDS011;43580;44.014;20.466;2023-12-22T10:49:02;23.40;;;17.23;;
57746;SDS011;43580;44.014;20.466;2023-12-22T10:51:29;49.45;;;33.20;;
57746;SDS011;43580;44.014;20.466;2023-12-22T10:53:58;54.33;;;40.60;;
57746;SDS011;43580;44.014;20.466;2023-12-22T10:56:24;45.50;;;33.05;;
57746;SDS011;43580;44.014;20.466;2023-12-22T10:58:53;17.08;;;10.52;;
57746;SDS011;43580;44.014;20.466;2023-12-22T11:01:20;24.10;;;14.80;;
57746;SDS011;43580;44.014;20.466;2023-12-22T11:03:50;15.90;;;9.20;;
57746;SDS011;43580;44.014;20.466;2023-12-22T11:06:16;15.13;;;7.47;;
57746;SDS011;43580;44.014;20.466;2023-12-22T11:08:45;24.25;;;15.27;;
57746;SDS011;43580;44.014;20.466;2023-12-22T11:11:16;30.20;;;17.55;;
57746;SDS011;43580;44.014;20.466;2023-12-22T11:13:48;27.25;;;15.65;;
57746;SDS011;43580;44.014;20.466;2023-12-22T11:16:17;27.40;;;13.65;;
57746;SDS011;43580;44.014;20.466;2023-12-22T11:18:43;53.53;;;35.83;;
57746;SDS011;43580;44.014;20.466;2023-12-22T11:21:10;45.92;;;27.40;;
57746;SDS011;43580;44.014;20.466;2023-12-22T11:23:39;41.78;;;26.48;;
57746;SDS011;43580;44.014;20.466;2023-12-22T11:26:05;43.17;;;21.27;;
57746;SDS011;43580;44.014;20.466;2023-12-22T11:28:32;47.28;;;27.98;;
57746;SDS011;43580;44.014;20.466;2023-12-22T11:30:59;35.55;;;20.73;;
57746;SDS011;43580;44.014;20.466;2023-12-22T11:33:26;27.23;;;17.17;;
57746;SDS011;43580;44.014;20.466;2023-12-22T11:35:55;170.45;;;121.65;;
57746;SDS011;43580;44.014;20.466;2023-12-22T11:38:22;127.53;;;104.15;;
57746;SDS011;43580;44.014;20.466;2023-12-22T11:40:48;48.33;;;37.60;;
57746;SDS011;43580;44.014;20.466;2023-12-22T11:43:15;30.55;;;22.38;;
57746;SDS011;43580;44.014;20.466;2023-12-22T11:45:43;18.13;;;13.43;;
57746;SDS011;43580;44.014;20.466;2023-12-22T11:48:12;16.90;;;10.98;;
57746;SDS011;43580;44.014;20.466;2023-12-22T11:50:38;22.73;;;12.30;;
57746;SDS011;43580;44.014;20.466;2023-12-22T11:53:23;29.70;;;16.92;;
57746;SDS011;43580;44.014;20.466;2023-12-22T11:56:02;24.17;;;14.50;;
57746;SDS011;43580;44.014;20.466;2023-12-22T11:58:45;25.25;;;15.88;;
57746;SDS011;43580;44.014;20.466;2023-12-22T12:01:20;28.45;;;16.10;;
57746;SDS011;43580;44.014;20.466;2023-12-22T12:04:02;31.88;;;18.98;;
57746;SDS011;43580;44.014;20.466;2023-12-22T12:06:31;40.17;;;25.10;;
57746;SDS011;43580;44.014;20.466;2023-12-22T12:08:59;45.83;;;27.05;;
57746;SDS011;43580;44.014;20.466;2023-12-22T12:14:13;33.67;;;20.67;;
57746;SDS011;43580;44.014;20.466;2023-12-22T12:16:40;34.28;;;20.20;;
57746;SDS011;43580;44.014;20.466;2023-12-22T12:19:09;35.55;;;22.83;;
57746;SDS011;43580;44.014;20.466;2023-12-22T12:21:35;24.85;;;17.23;;
57746;SDS011;43580;44.014;20.466;2023-12-22T12:24:01;25.77;;;16.42;;
57746;SDS011;43580;44.014;20.466;2023-12-22T12:26:32;48.97;;;25.25;;
57746;SDS011;43580;44.014;20.466;2023-12-22T12:28:59;83.88;;;42.95;;
57746;SDS011;43580;44.014;20.466;2023-12-22T12:31:35;111.03;;;54.67;;
57746;SDS011;43580;44.014;20.466;2023-12-22T12:34:07;80.10;;;41.63;;
57746;SDS011;43580;44.014;20.466;2023-12-22T12:36:33;43.45;;;23.80;;
57746;SDS011;43580;44.014;20.466;2023-12-22T12:39:06;79.65;;;45.03;;
57746;SDS011;43580;44.014;20.466;2023-12-22T12:41:35;87.45;;;50.03;;
57746;SDS011;43580;44.014;20.466;2023-12-22T12:44:05;64.07;;;36.95;;
57746;SDS011;43580;44.014;20.466;2023-12-22T12:46:35;143.20;;;67.10;;
57746;SDS011;43580;44.014;20.466;2023-12-22T12:51:35;86.40;;;43.75;;
57746;SDS011;43580;44.014;20.466;2023-12-22T12:54:01;52.80;;;31.83;;
57746;SDS011;43580;44.014;20.466;2023-12-22T12:56:27;36.30;;;22.10;;
57746;SDS011;43580;44.014;20.466;2023-12-22T12:58:53;24.35;;;14.65;;
57746;SDS011;43580;44.014;20.466;2023-12-22T13:01:19;29.38;;;16.77;;
57746;SDS011;43580;44.014;20.466;2023-12-22T13:03:54;38.17;;;20.45;;
57746;SDS011;43580;44.014;20.466;2023-12-22T13:06:21;51.70;;;30.55;;
57746;SDS011;43580;44.014;20.466;2023-12-22T13:08:53;58.47;;;45.95;;
57746;SDS011;43580;44.014;20.466;2023-12-22T13:11:22;64.75;;;37.47;;
57746;SDS011;43580;44.014;20.466;2023-12-22T13:13:54;43.15;;;23.92;;
57746;SDS011;43580;44.014;20.466;2023-12-22T13:16:20;30.63;;;17.35;;
57746;SDS011;43580;44.014;20.466;2023-12-22T13:18:47;45.50;;;26.52;;
57746;SDS011;43580;44.014;20.466;2023-12-22T13:21:14;56.47;;;31.70;;
57746;SDS011;43580;44.014;20.466;2023-12-22T13:23:41;51.42;;;28.60;;
57746;SDS011;43580;44.014;20.466;2023-12-22T13:26:17;74.93;;;43.47;;
57746;SDS011;43580;44.014;20.466;2023-12-22T13:28:43;37.78;;;21.95;;
57746;SDS011;43580;44.014;20.466;2023-12-22T13:31:13;48.47;;;26.95;;
57746;SDS011;43580;44.014;20.466;2023-12-22T13:33:40;61.95;;;33.38;;
57746;SDS011;43580;44.014;20.466;2023-12-22T13:36:06;49.28;;;21.75;;
57746;SDS011;43580;44.014;20.466;2023-12-22T13:38:33;142.48;;;69.43;;
57746;SDS011;43580;44.014;20.466;2023-12-22T13:41:04;74.43;;;38.88;;
57746;SDS011;43580;44.014;20.466;2023-12-22T13:43:30;60.67;;;28.95;;
57746;SDS011;43580;44.014;20.466;2023-12-22T13:45:56;39.42;;;21.25;;
57746;SDS011;43580;44.014;20.466;2023-12-22T13:48:23;43.00;;;23.33;;
57746;SDS011;43580;44.014;20.466;2023-12-22T13:50:56;16.73;;;9.35;;
57746;SDS011;43580;44.014;20.466;2023-12-22T13:53:22;23.45;;;11.57;;
57746;SDS011;43580;44.014;20.466;2023-12-22T13:55:55;29.20;;;17.08;;
57746;SDS011;43580;44.014;20.466;2023-12-22T13:58:22;15.77;;;9.98;;
57746;SDS011;43580;44.014;20.466;2023-12-22T14:00:53;14.18;;;8.43;;
57746;SDS011;43580;44.014;20.466;2023-12-22T14:03:19;18.77;;;12.30;;
57746;SDS011;43580;44.014;20.466;2023-12-22T14:05:49;25.05;;;16.17;;
57746;SDS011;43580;44.014;20.466;2023-12-22T14:08:18;29.48;;;17.13;;
57746;SDS011;43580;44.014;20.466;2023-12-22T14:10:45;55.88;;;34.13;;
57746;SDS011;43580;44.014;20.466;2023-12-22T14:13:16;47.25;;;29.27;;
57746;SDS011;43580;44.014;20.466;2023-12-22T14:15:42;58.72;;;33.58;;
57746;SDS011;43580;44.014;20.466;2023-12-22T14:18:11;61.80;;;36.75;;
57746;SDS011;43580;44.014;20.466;2023-12-22T14:20:37;87.13;;;50.42;;
57746;SDS011;43580;44.014;20.466;2023-12-22T14:23:03;93.30;;;55.30;;
57746;SDS011;43580;44.014;20.466;2023-12-22T14:25:29;97.57;;;58.20;;
57746;SDS011;43580;44.014;20.466;2023-12-22T14:27:57;94.38;;;56.72;;